createdAt,value
2022-11-24T00:01:31.280Z,6.52
2022-11-24T00:04:16.498Z,6.54
2022-11-24T00:07:01.635Z,6.50
2022-11-24T00:09:46.806Z,6.57
2022-11-24T00:12:32.131Z,6.59
2022-11-24T00:15:16.924Z,6.70
2022-11-24T00:18:02.011Z,6.88
2022-11-24T00:20:52.446Z,6.93
2022-11-24T00:23:37.817Z,6.95
2022-11-24T00:26:26.991Z,6.89
2022-11-24T00:29:12.052Z,6.90
2022-11-24T00:31:57.383Z,6.85
2022-11-24T00:34:42.439Z,7.04
2022-11-24T00:37:27.253Z,7.04
2022-11-24T00:40:12.364Z,6.88
2022-11-24T00:42:57.050Z,7.30
2022-11-24T00:45:42.750Z,7.57
2022-11-24T00:48:28.234Z,7.44
2022-11-24T00:51:16.854Z,7.45
2022-11-24T00:54:02.649Z,7.67
2022-11-24T00:56:47.722Z,7.65
2022-11-24T00:59:32.876Z,7.71
2022-11-24T01:02:17.834Z,7.67
2022-11-24T01:05:03.193Z,7.65
2022-11-24T01:07:48.417Z,7.62
2022-11-24T01:10:33.407Z,7.76
2022-11-24T01:13:18.277Z,7.62
2022-11-24T01:16:03.851Z,7.54
2022-11-24T01:18:49.359Z,7.44
2022-11-24T01:21:34.563Z,7.42
2022-11-24T01:24:19.608Z,7.53
2022-11-24T01:27:04.479Z,7.57
2022-11-24T01:29:49.587Z,7.57
2022-11-24T01:32:36.070Z,7.56
2022-11-24T01:35:21.229Z,7.58
2022-11-24T01:38:06.163Z,7.55
2022-11-24T01:41:19.528Z,7.48
2022-11-24T01:44:25.706Z,7.39
2022-11-24T01:47:36.785Z,7.38
2022-11-24T01:50:22.514Z,7.34
2022-11-24T01:53:08.352Z,7.31
2022-11-24T01:55:53.378Z,7.23
2022-11-24T01:58:42.414Z,7.20
2022-11-24T02:01:29.094Z,7.03
2022-11-24T02:04:19.652Z,6.84
2022-11-24T02:07:07.025Z,6.73
2022-11-24T02:09:55.565Z,6.75
2022-11-24T02:12:45.240Z,6.75
2022-11-24T02:15:30.257Z,6.81
2022-11-24T02:18:14.998Z,6.70
2022-11-24T02:21:00.958Z,6.48
2022-11-24T02:23:48.551Z,6.34
2022-11-24T02:26:48.647Z,6.27
2022-11-24T02:29:33.941Z,6.18
2022-11-24T02:32:20.187Z,6.14
2022-11-24T02:35:06.555Z,6.10
2022-11-24T02:37:51.587Z,6.12
2022-11-24T02:40:37.180Z,6.01
2022-11-24T02:43:23.410Z,5.94
2022-11-24T02:46:10.680Z,5.86
2022-11-24T02:48:55.742Z,5.74
2022-11-24T02:51:40.782Z,5.63
2022-11-24T02:54:25.655Z,5.61
2022-11-24T02:57:11.373Z,5.63
2022-11-24T02:59:56.707Z,5.66
2022-11-24T03:02:41.718Z,5.60
2022-11-24T03:05:26.467Z,5.55
2022-11-24T03:08:12.831Z,5.45
2022-11-24T03:10:57.702Z,5.40
2022-11-24T03:13:42.648Z,5.35
2022-11-24T03:16:27.803Z,5.28
2022-11-24T03:19:12.819Z,5.19
2022-11-24T03:21:57.773Z,5.27
2022-11-24T03:24:42.803Z,5.31
2022-11-24T03:27:27.976Z,5.34
2022-11-24T03:30:13.566Z,5.43
2022-11-24T03:32:58.547Z,5.50
2022-11-24T03:35:43.760Z,5.60
2022-11-24T03:38:29.047Z,5.73
2022-11-24T03:41:13.923Z,5.80
2022-11-24T03:43:59.090Z,5.86
2022-11-24T03:46:44.147Z,5.93
2022-11-24T03:49:29.137Z,5.94
2022-11-24T03:52:13.891Z,5.93
2022-11-24T03:54:59.001Z,5.93
2022-11-24T03:57:43.934Z,5.90
2022-11-24T04:00:29.073Z,5.86
2022-11-24T04:03:13.967Z,5.76
2022-11-24T04:05:58.839Z,5.72
2022-11-24T04:08:44.118Z,5.69
2022-11-24T04:11:47.974Z,5.66
2022-11-24T04:14:33.376Z,5.67
2022-11-24T04:17:18.881Z,5.72
2022-11-24T04:20:05.120Z,5.76
2022-11-24T04:22:51.686Z,5.78
2022-11-24T04:25:37.525Z,5.74
2022-11-24T04:28:22.474Z,5.74
2022-11-24T04:31:07.815Z,5.73
2022-11-24T04:33:52.722Z,5.75
2022-11-24T04:36:37.844Z,5.90
2022-11-24T04:39:25.985Z,5.90
2022-11-24T04:42:13.409Z,5.95
2022-11-24T04:44:58.253Z,6.05
2022-11-24T04:47:43.291Z,6.22
2022-11-24T04:50:28.432Z,6.57
2022-11-24T04:53:13.719Z,6.65
2022-11-24T04:55:58.493Z,6.94
2022-11-24T04:58:43.805Z,7.08
2022-11-24T05:01:28.897Z,7.10
2022-11-24T05:04:15.532Z,7.05
2022-11-24T05:07:00.305Z,7.01
2022-11-24T05:10:05.598Z,6.89
2022-11-24T05:12:56.067Z,6.74
2022-11-24T05:15:41.814Z,6.63
2022-11-24T05:18:26.964Z,6.58
2022-11-24T05:21:12.575Z,6.93
2022-11-24T05:23:57.870Z,7.10
2022-11-24T05:26:42.933Z,6.92
2022-11-24T05:29:28.041Z,7.04
2022-11-24T05:32:12.866Z,7.12
2022-11-24T05:34:58.183Z,7.25
2022-11-24T05:37:42.938Z,7.53
2022-11-24T05:40:28.285Z,7.55
2022-11-24T05:43:15.365Z,7.63
2022-11-24T05:46:01.365Z,7.57
2022-11-24T05:48:46.133Z,7.57
2022-11-24T05:51:31.350Z,7.55
2022-11-24T05:54:16.389Z,7.61
2022-11-24T05:57:01.550Z,7.62
2022-11-24T05:59:46.632Z,7.57
2022-11-24T06:02:32.096Z,7.56
2022-11-24T06:05:17.660Z,7.60
2022-11-24T06:08:02.569Z,7.59
2022-11-24T06:10:47.594Z,7.53
2022-11-24T06:13:32.843Z,7.49
2022-11-24T06:16:19.311Z,7.44
2022-11-24T06:19:03.993Z,7.42
2022-11-24T06:21:49.225Z,7.39
2022-11-24T06:24:34.494Z,7.29
2022-11-24T06:27:19.677Z,7.29
2022-11-24T06:30:05.443Z,7.30
2022-11-24T06:32:54.721Z,7.27
2022-11-24T06:35:39.825Z,7.22
2022-11-24T06:38:24.702Z,7.16
2022-11-24T06:41:13.346Z,7.18
2022-11-24T06:43:58.283Z,7.08
2022-11-24T06:46:43.574Z,7.04
2022-11-24T06:49:28.507Z,7.09
2022-11-24T06:52:13.550Z,7.17
2022-11-24T06:54:58.573Z,7.18
2022-11-24T06:57:43.713Z,7.18
2022-11-24T07:00:31.920Z,7.18
2022-11-24T07:03:16.954Z,7.20
2022-11-24T07:06:01.941Z,7.22
2022-11-24T07:08:47.631Z,7.25
2022-11-24T07:11:32.491Z,7.18
2022-11-24T07:14:17.396Z,7.16
2022-11-24T07:17:02.481Z,7.17
2022-11-24T07:19:47.336Z,7.11
2022-11-24T07:22:32.676Z,6.99
2022-11-24T07:25:17.743Z,6.92
2022-11-24T07:28:03.012Z,6.88
2022-11-24T07:30:47.947Z,6.88
2022-11-24T07:33:32.914Z,6.89
2022-11-24T07:36:17.835Z,6.89
2022-11-24T07:39:05.583Z,6.79
2022-11-24T07:41:50.479Z,6.85
2022-11-24T07:44:35.836Z,6.86
2022-11-24T07:47:20.904Z,6.82
2022-11-24T07:50:09.534Z,6.78
2022-11-24T07:52:54.758Z,6.70
2022-11-24T07:55:39.806Z,6.77
2022-11-24T07:58:28.871Z,6.81
2022-11-24T08:01:17.973Z,6.94
2022-11-24T08:04:03.061Z,6.95
2022-11-24T08:06:48.250Z,6.99
2022-11-24T08:09:33.560Z,6.99
2022-11-24T08:12:22.431Z,7.05
2022-11-24T08:15:11.170Z,7.21
2022-11-24T08:18:00.814Z,7.33
2022-11-24T08:20:45.983Z,7.44
2022-11-24T08:23:31.788Z,7.50
2022-11-24T08:26:19.105Z,7.63
2022-11-24T08:29:04.045Z,7.86
2022-11-24T08:31:49.208Z,7.80
2022-11-24T08:34:34.760Z,7.89
2022-11-24T08:37:19.741Z,8.01
2022-11-24T08:40:05.558Z,8.13
2022-11-24T08:42:50.593Z,8.27
2022-11-24T08:45:41.217Z,8.40
2022-11-24T08:48:26.647Z,8.35
2022-11-24T08:51:14.312Z,8.37
2022-11-24T08:54:01.249Z,8.48
2022-11-24T08:56:48.792Z,8.44
2022-11-24T08:59:34.058Z,8.41
2022-11-24T09:02:18.811Z,8.27
2022-11-24T09:05:05.339Z,8.24
2022-11-24T09:07:55.015Z,8.40
2022-11-24T09:10:40.025Z,8.38
2022-11-24T09:13:24.871Z,8.40
2022-11-24T09:16:13.033Z,8.52
2022-11-24T09:19:00.588Z,8.46
2022-11-24T09:21:45.361Z,8.65
2022-11-24T09:24:30.274Z,8.96
2022-11-24T09:27:15.068Z,8.93
2022-11-24T09:30:00.106Z,8.99
2022-11-24T09:32:45.138Z,9.14
2022-11-24T09:35:30.398Z,9.12
2022-11-24T09:38:15.401Z,9.38
2022-11-24T09:41:29.595Z,9.72
2022-11-24T09:44:41.938Z,9.98
2022-11-24T09:47:39.453Z,9.77
2022-11-24T09:50:36.506Z,9.50
2022-11-24T09:53:44.487Z,9.59
2022-11-24T09:56:34.402Z,9.48
2022-11-24T09:59:24.017Z,9.68
2022-11-24T10:02:13.203Z,9.63
2022-11-24T10:04:58.866Z,9.65
2022-11-24T10:07:55.085Z,9.84
2022-11-24T10:10:54.514Z,9.98
2022-11-24T10:14:03.987Z,10.04
2022-11-24T10:17:01.667Z,10.19
2022-11-24T10:20:04.798Z,10.57
2022-11-24T10:23:18.427Z,10.64
2022-11-24T10:26:12.643Z,10.59
2022-11-24T10:28:57.897Z,10.44
2022-11-24T10:31:45.859Z,10.74
2022-11-24T10:34:37.389Z,11.03
2022-11-24T10:37:42.167Z,10.71
2022-11-24T10:43:43.399Z,10.80
2022-11-24T10:46:29.981Z,10.93
2022-11-24T10:49:21.726Z,11.06
2022-11-24T10:52:13.725Z,11.39
2022-11-24T10:55:01.230Z,10.80
2022-11-24T10:57:46.469Z,10.91
2022-11-24T11:00:34.072Z,10.83
2022-11-24T11:03:21.756Z,11.45
2022-11-24T11:06:13.109Z,11.59
2022-11-24T11:09:06.859Z,11.67
2022-11-24T11:11:53.685Z,11.17
2022-11-24T11:14:38.803Z,11.11
2022-11-24T11:17:35.153Z,11.05
2022-11-24T11:20:29.269Z,11.26
2022-11-24T11:23:19.880Z,11.20
2022-11-24T11:26:23.648Z,11.06
2022-11-24T11:35:36.430Z,11.17
2022-11-24T11:38:21.276Z,11.15
2022-11-24T11:41:11.814Z,11.69
2022-11-24T11:44:36.566Z,11.29
2022-11-24T11:47:27.939Z,11.23
2022-11-24T11:50:20.510Z,11.14
2022-11-24T11:53:20.242Z,11.17
2022-11-24T11:56:20.815Z,11.21
2022-11-24T11:59:42.657Z,11.24
2022-11-24T12:03:05.390Z,11.28
2022-11-24T12:06:03.798Z,11.17
2022-11-24T12:09:20.429Z,11.31
2022-11-24T12:12:30.681Z,11.22
2022-11-24T12:15:36.442Z,11.30
2022-11-24T12:18:56.609Z,11.38
2022-11-24T12:21:47.170Z,11.49
2022-11-24T12:24:59.459Z,11.42
2022-11-24T12:28:14.559Z,11.44
2022-11-24T12:31:09.143Z,11.33
2022-11-24T12:34:09.719Z,11.39
2022-11-24T12:37:31.282Z,11.43
2022-11-24T12:40:34.452Z,11.44
2022-11-24T12:43:30.249Z,11.50
2022-11-24T12:46:40.604Z,11.42
2022-11-24T12:49:37.904Z,11.34
2022-11-24T12:52:31.283Z,11.40
2022-11-24T12:55:20.128Z,11.39
2022-11-24T12:58:17.014Z,11.53
2022-11-24T13:01:22.268Z,11.43
2022-11-24T13:04:20.885Z,11.39
2022-11-24T13:07:43.255Z,11.39
2022-11-24T13:10:54.690Z,11.57
2022-11-24T13:14:00.570Z,11.45
2022-11-24T13:17:13.432Z,11.39
2022-11-24T13:20:15.974Z,11.50
2022-11-24T13:23:03.414Z,11.55
2022-11-24T13:26:15.000Z,11.52
2022-11-24T13:29:09.269Z,11.55
2022-11-24T13:32:05.874Z,11.66
2022-11-24T13:34:54.757Z,11.68
2022-11-24T13:37:39.841Z,11.61
2022-11-24T13:40:26.285Z,11.64
2022-11-24T13:43:11.451Z,11.57
2022-11-24T13:45:56.374Z,11.56
2022-11-24T13:48:59.973Z,11.43
2022-11-24T13:51:44.921Z,11.64
2022-11-24T13:54:30.717Z,11.52
2022-11-24T13:57:37.948Z,11.46
2022-11-24T14:00:28.388Z,11.31
2022-11-24T14:03:21.753Z,11.26
2022-11-24T14:06:13.871Z,11.36
2022-11-24T14:09:18.867Z,11.25
2022-11-24T14:12:12.377Z,11.15
2022-11-24T14:15:22.274Z,11.05
2022-11-24T14:18:17.613Z,11.03
2022-11-24T14:21:25.436Z,11.01
2022-11-24T14:24:24.008Z,11.02
2022-11-24T14:27:15.218Z,10.92
2022-11-24T14:30:02.548Z,10.86
2022-11-24T14:33:03.923Z,10.76
2022-11-24T14:35:50.899Z,10.69
2022-11-24T14:38:36.065Z,10.59
2022-11-24T14:41:28.148Z,10.56
2022-11-24T14:44:26.500Z,10.55
2022-11-24T14:47:31.344Z,10.52
2022-11-24T14:50:20.569Z,10.47
2022-11-24T14:53:13.681Z,10.45
2022-11-24T14:56:25.670Z,10.34
2022-11-24T14:59:25.195Z,10.26
2022-11-24T15:02:44.486Z,10.20
2022-11-24T15:05:52.772Z,10.09
2022-11-24T15:08:45.041Z,10.02
2022-11-24T15:11:32.020Z,9.87
2022-11-24T15:14:36.172Z,9.90
2022-11-24T15:17:27.376Z,9.78
2022-11-24T15:20:28.248Z,9.65
2022-11-24T15:23:15.789Z,9.19
2022-11-24T15:26:00.848Z,9.16
2022-11-24T15:28:46.618Z,9.13
2022-11-24T15:31:32.067Z,9.42
2022-11-24T15:34:17.048Z,9.32
2022-11-24T15:37:01.897Z,9.35
2022-11-24T15:39:47.248Z,9.27
2022-11-24T15:42:32.856Z,9.22
2022-11-24T15:45:19.041Z,9.20
2022-11-24T15:48:03.888Z,9.16
2022-11-24T15:50:50.369Z,9.08
2022-11-24T15:53:46.448Z,9.11
2022-11-24T15:56:34.318Z,9.10
2022-11-24T15:59:21.201Z,9.09
2022-11-24T16:02:09.148Z,9.10
2022-11-24T16:04:54.222Z,9.08
2022-11-24T16:07:39.997Z,9.02
2022-11-24T16:10:28.248Z,9.01
2022-11-24T16:13:13.495Z,8.97
2022-11-24T16:15:58.789Z,8.94
2022-11-24T16:18:45.073Z,8.92
2022-11-24T16:21:29.941Z,8.81
2022-11-24T16:24:14.940Z,8.76
2022-11-24T16:27:00.189Z,8.65
2022-11-24T16:29:45.195Z,8.73
2022-11-24T16:32:30.394Z,8.71
2022-11-24T16:35:15.907Z,8.63
2022-11-24T16:38:00.676Z,8.57
2022-11-24T16:40:56.324Z,8.54
2022-11-24T16:43:42.097Z,8.46
2022-11-24T16:46:27.478Z,8.33
2022-11-24T16:49:12.763Z,8.20
2022-11-24T16:51:57.877Z,8.11
2022-11-24T16:54:42.879Z,8.02
2022-11-24T16:57:27.972Z,7.90
2022-11-24T17:00:13.385Z,7.94
2022-11-24T17:02:58.502Z,8.04
2022-11-24T17:05:43.685Z,8.03
2022-11-24T17:08:33.723Z,7.87
2022-11-24T17:11:21.257Z,7.71
2022-11-24T17:14:06.475Z,7.63
2022-11-24T17:16:51.590Z,7.53
2022-11-24T17:19:37.404Z,7.47
2022-11-24T17:22:22.966Z,7.44
2022-11-24T17:25:08.637Z,7.17
2022-11-24T17:27:53.859Z,7.04
2022-11-24T17:30:38.714Z,6.92
2022-11-24T17:33:23.664Z,6.78
2022-11-24T17:36:08.846Z,6.62
2022-11-24T17:38:54.295Z,6.61
2022-11-24T17:41:39.440Z,6.54
2022-11-24T17:44:24.662Z,6.58
2022-11-24T17:47:09.814Z,6.51
2022-11-24T17:49:54.936Z,6.47
2022-11-24T17:52:39.951Z,6.30
2022-11-24T17:55:24.688Z,6.21
2022-11-24T17:58:09.785Z,6.03
2022-11-24T18:00:55.220Z,5.97
2022-11-24T18:03:41.276Z,5.88
2022-11-24T18:06:28.524Z,5.87
2022-11-24T18:09:13.612Z,5.88
2022-11-24T18:11:58.768Z,5.82
2022-11-24T18:14:43.903Z,5.86
2022-11-24T18:17:29.036Z,5.73
2022-11-24T18:20:14.155Z,5.72
2022-11-24T18:23:07.777Z,5.68
2022-11-24T18:25:57.323Z,5.64
2022-11-24T18:28:44.212Z,5.79
2022-11-24T18:31:30.933Z,5.72
2022-11-24T18:34:15.761Z,5.93
2022-11-24T18:37:00.925Z,5.89
2022-11-24T18:39:46.043Z,5.84
2022-11-24T18:42:31.198Z,5.74
2022-11-24T18:45:16.347Z,5.69
2022-11-24T18:48:01.348Z,5.66
2022-11-24T18:50:54.271Z,5.63
2022-11-24T18:53:39.873Z,5.62
2022-11-24T18:56:25.769Z,5.60
2022-11-24T18:59:10.525Z,5.63
2022-11-24T19:01:56.409Z,5.65
2022-11-24T19:04:41.409Z,5.61
2022-11-24T19:07:26.700Z,5.67
2022-11-24T19:10:12.146Z,5.49
2022-11-24T19:12:57.048Z,5.42
2022-11-24T19:15:42.248Z,5.31
2022-11-24T19:18:29.103Z,5.31
2022-11-24T19:21:14.203Z,5.22
2022-11-24T19:24:04.908Z,5.09
2022-11-24T19:26:51.222Z,5.15
2022-11-24T19:29:41.716Z,5.08
2022-11-24T19:32:28.030Z,5.03
2022-11-24T19:35:13.393Z,5.03
2022-11-24T19:37:58.312Z,5.00
2022-11-24T19:40:43.458Z,4.95
2022-11-24T19:43:28.547Z,4.92
2022-11-24T19:46:18.323Z,4.85
2022-11-24T19:49:04.507Z,4.96
2022-11-24T19:51:49.931Z,4.98
2022-11-24T19:54:36.064Z,4.86
2022-11-24T19:57:21.161Z,4.78
2022-11-24T20:00:07.333Z,4.76
2022-11-24T20:02:52.321Z,4.69
2022-11-24T20:05:37.253Z,4.47
2022-11-24T20:08:22.114Z,4.57
2022-11-24T20:11:13.122Z,4.70
2022-11-24T20:13:58.484Z,4.72
2022-11-24T20:16:45.549Z,4.68
2022-11-24T20:19:32.533Z,4.67
2022-11-24T20:22:17.632Z,4.68
2022-11-24T20:25:02.708Z,4.46
2022-11-24T20:27:47.919Z,4.38
2022-11-24T20:30:33.004Z,4.53
2022-11-24T20:33:17.944Z,4.68
2022-11-24T20:36:04.967Z,4.71
2022-11-24T20:38:51.741Z,4.59
2022-11-24T20:41:39.477Z,4.40
2022-11-24T20:44:26.515Z,4.60
2022-11-24T20:47:11.343Z,4.63
2022-11-24T20:49:57.136Z,4.53
2022-11-24T20:52:42.087Z,4.66
2022-11-24T20:55:26.956Z,4.46
2022-11-24T20:58:12.058Z,4.43
2022-11-24T21:01:12.787Z,4.45
2022-11-24T21:03:59.374Z,4.43
2022-11-24T21:06:44.460Z,4.42
2022-11-24T21:09:30.550Z,4.37
2022-11-24T21:12:15.457Z,4.35
2022-11-24T21:15:00.635Z,4.37
2022-11-24T21:17:45.794Z,4.34
2022-11-24T21:20:33.748Z,4.36
2022-11-24T21:23:20.406Z,4.26
2022-11-24T21:26:11.524Z,4.38
2022-11-24T21:29:00.207Z,4.22
2022-11-24T21:31:45.666Z,4.31
2022-11-24T21:34:30.589Z,4.41
2022-11-24T21:37:15.268Z,4.34
2022-11-24T21:40:00.509Z,4.27
2022-11-24T21:42:45.496Z,4.18
2022-11-24T21:45:30.561Z,4.14
2022-11-24T21:48:15.439Z,4.08
2022-11-24T21:51:02.458Z,4.06
2022-11-24T21:53:47.626Z,4.09
2022-11-24T21:56:32.726Z,4.06
2022-11-24T21:59:19.835Z,4.11
2022-11-24T22:02:08.936Z,4.12
2022-11-24T22:04:57.755Z,4.30
2022-11-24T22:07:43.399Z,4.13
2022-11-24T22:10:28.447Z,4.19
2022-11-24T22:13:13.687Z,4.23
2022-11-24T22:16:00.839Z,4.18
2022-11-24T22:18:46.309Z,4.11
2022-11-24T22:21:33.279Z,4.26
2022-11-24T22:24:21.690Z,4.32
2022-11-24T22:27:09.467Z,4.23
2022-11-24T22:29:54.492Z,4.27
2022-11-24T22:32:39.532Z,4.24
2022-11-24T22:35:24.584Z,4.29
2022-11-24T22:38:09.665Z,4.40
2022-11-24T22:40:55.009Z,4.42
2022-11-24T22:43:41.214Z,4.30
2022-11-24T22:46:27.714Z,4.34
2022-11-24T22:49:12.628Z,4.35
2022-11-24T22:51:57.861Z,4.32
2022-11-24T22:54:42.982Z,4.30
2022-11-24T22:57:27.725Z,4.29
2022-11-24T23:00:13.782Z,4.24
2022-11-24T23:02:58.907Z,4.22
2022-11-24T23:05:43.902Z,4.08
2022-11-24T23:08:31.731Z,4.19
2022-11-24T23:11:25.839Z,4.24
2022-11-24T23:14:15.685Z,4.29
2022-11-24T23:17:00.752Z,4.29
2022-11-24T23:19:45.905Z,4.29
2022-11-24T23:22:31.114Z,4.07
2022-11-24T23:25:15.911Z,4.18
2022-11-24T23:28:00.997Z,4.30
2022-11-24T23:30:46.011Z,4.42
2022-11-24T23:33:31.460Z,4.49
2022-11-24T23:36:18.562Z,4.53
2022-11-24T23:39:06.373Z,4.58
2022-11-24T23:41:51.463Z,4.52
2022-11-24T23:44:36.804Z,4.31
2022-11-24T23:47:21.961Z,4.16
2022-11-24T23:50:08.614Z,4.29
2022-11-24T23:52:53.650Z,4.35
2022-11-24T23:55:38.762Z,4.35
2022-11-24T23:58:23.411Z,4.41
